Santa Isabel, Brazil
Current Conditions -  °F | °C
As of 8:00 AM on Sunday 21 Dec 2014 (Local Time) from SBGR Reporting Station
Clear Clear  
Wind Chill: 77°   Ceiling: Unl
Heat Index: 79°   Visibility: 6mi
Dew Point: 66°   Wind: 9mph
Humidity: 69%   Direction: 20°NNE
Pressure: 29.94"   Gusts: NA
Location:  23.32°S, 46.22°W
Report Text: SBGR 211000Z 02008KT CAVOK 25/19 Q1014
Loading
Personal Weather Stations






























Interactive Weather Map New forecast layout! Learn more

10-Day Weather Forecast

Advertisements
Track Severe Weather on mobile